sensor_id;sensor_type;location;lat;lon;timestamp;pressure;altitude;pressure_sealevel;temperature;humidity
49947;BME280;35839;48.662;13.300;2024-01-15T00:02:11;96071.00;;;-0.48;100.00
49947;BME280;35839;48.662;13.300;2024-01-15T00:04:38;96074.25;;;-0.57;100.00
49947;BME280;35839;48.662;13.300;2024-01-15T00:07:04;96064.28;;;-0.73;100.00
49947;BME280;35839;48.662;13.300;2024-01-15T00:09:29;96081.75;;;-0.54;100.00
49947;BME280;35839;48.662;13.300;2024-01-15T00:11:54;96077.88;;;-0.59;100.00
49947;BME280;35839;48.662;13.300;2024-01-15T00:14:20;96079.56;;;-0.82;100.00
49947;BME280;35839;48.662;13.300;2024-01-15T00:16:46;96079.91;;;-0.40;100.00
49947;BME280;35839;48.662;13.300;2024-01-15T00:19:11;96074.25;;;-0.57;100.00
49947;BME280;35839;48.662;13.300;2024-01-15T00:21:36;96065.44;;;-0.30;100.00
49947;BME280;35839;48.662;13.300;2024-01-15T00:24:02;96060.53;;;-0.22;100.00
49947;BME280;35839;48.662;13.300;2024-01-15T00:26:27;96054.50;;;-0.56;100.00
49947;BME280;35839;48.662;13.300;2024-01-15T00:28:53;96062.38;;;-0.35;100.00
49947;BME280;35839;48.662;13.300;2024-01-15T00:31:18;96055.16;;;-0.30;100.00
49947;BME280;35839;48.662;13.300;2024-01-15T00:33:43;96043.88;;;-0.52;100.00
49947;BME280;35839;48.662;13.300;2024-01-15T00:36:09;96040.84;;;-0.57;100.00
49947;BME280;35839;48.662;13.300;2024-01-15T00:38:34;96028.22;;;-0.60;100.00
49947;BME280;35839;48.662;13.300;2024-01-15T00:40:59;96040.63;;;-0.89;100.00
49947;BME280;35839;48.662;13.300;2024-01-15T00:43:25;96048.19;;;-0.64;100.00
49947;BME280;35839;48.662;13.300;2024-01-15T00:45:50;96051.25;;;-0.94;100.00
49947;BME280;35839;48.662;13.300;2024-01-15T00:48:15;96052.59;;;-1.12;100.00
49947;BME280;35839;48.662;13.300;2024-01-15T00:50:41;96034.06;;;-1.77;100.00
49947;BME280;35839;48.662;13.300;2024-01-15T00:53:06;96036.56;;;-1.51;100.00
49947;BME280;35839;48.662;13.300;2024-01-15T00:55:32;96043.09;;;-1.47;100.00
49947;BME280;35839;48.662;13.300;2024-01-15T00:57:57;96033.59;;;-1.34;100.00
49947;BME280;35839;48.662;13.300;2024-01-15T01:00:22;96036.88;;;-1.32;100.00
49947;BME280;35839;48.662;13.300;2024-01-15T01:02:48;96034.31;;;-1.32;100.00
49947;BME280;35839;48.662;13.300;2024-01-15T01:05:13;96044.50;;;-1.43;100.00
49947;BME280;35839;48.662;13.300;2024-01-15T01:07:38;96040.72;;;-1.37;100.00
49947;BME280;35839;48.662;13.300;2024-01-15T01:10:04;96041.31;;;-1.71;100.00
49947;BME280;35839;48.662;13.300;2024-01-15T01:12:30;96034.91;;;-1.89;100.00
49947;BME280;35839;48.662;13.300;2024-01-15T01:14:57;96041.13;;;-1.67;100.00
49947;BME280;35839;48.662;13.300;2024-01-15T01:17:22;96033.53;;;-1.82;100.00
49947;BME280;35839;48.662;13.300;2024-01-15T01:19:49;96029.84;;;-1.78;100.00
49947;BME280;35839;48.662;13.300;2024-01-15T01:22:15;96028.31;;;-1.80;100.00
49947;BME280;35839;48.662;13.300;2024-01-15T01:24:40;96007.31;;;-1.98;100.00
49947;BME280;35839;48.662;13.300;2024-01-15T01:27:05;96016.81;;;-1.51;100.00
49947;BME280;35839;48.662;13.300;2024-01-15T01:29:31;96018.75;;;-1.65;100.00
49947;BME280;35839;48.662;13.300;2024-01-15T01:31:56;96014.69;;;-1.81;100.00
49947;BME280;35839;48.662;13.300;2024-01-15T01:34:22;96006.16;;;-1.57;100.00
49947;BME280;35839;48.662;13.300;2024-01-15T01:36:47;96015.81;;;-1.85;100.00
49947;BME280;35839;48.662;13.300;2024-01-15T01:39:13;96023.97;;;-2.04;100.00
49947;BME280;35839;48.662;13.300;2024-01-15T01:41:39;96030.72;;;-1.90;100.00
49947;BME280;35839;48.662;13.300;2024-01-15T01:44:04;96035.97;;;-2.17;100.00
49947;BME280;35839;48.662;13.300;2024-01-15T01:46:30;96041.03;;;-2.16;100.00
49947;BME280;35839;48.662;13.300;2024-01-15T01:48:57;96048.53;;;-1.76;100.00
49947;BME280;35839;48.662;13.300;2024-01-15T01:51:23;96047.94;;;-1.79;100.00
49947;BME280;35839;48.662;13.300;2024-01-15T01:53:50;96056.63;;;-1.82;100.00
49947;BME280;35839;48.662;13.300;2024-01-15T01:56:17;96059.19;;;-1.69;100.00
49947;BME280;35839;48.662;13.300;2024-01-15T01:58:44;96055.34;;;-1.87;100.00
49947;BME280;35839;48.662;13.300;2024-01-15T02:01:11;96051.41;;;-1.80;100.00
49947;BME280;35839;48.662;13.300;2024-01-15T02:03:37;96054.66;;;-2.02;100.00
49947;BME280;35839;48.662;13.300;2024-01-15T02:06:02;96063.69;;;-2.09;100.00
49947;BME280;35839;48.662;13.300;2024-01-15T02:08:28;96068.56;;;-1.81;100.00
49947;BME280;35839;48.662;13.300;2024-01-15T02:10:54;96066.03;;;-1.57;100.00
49947;BME280;35839;48.662;13.300;2024-01-15T02:13:20;96076.47;;;-1.84;100.00
49947;BME280;35839;48.662;13.300;2024-01-15T02:15:45;96070.84;;;-2.02;100.00
49947;BME280;35839;48.662;13.300;2024-01-15T02:18:10;96065.59;;;-1.75;100.00
49947;BME280;35839;48.662;13.300;2024-01-15T02:20:36;96065.81;;;-1.91;100.00
49947;BME280;35839;48.662;13.300;2024-01-15T02:23:08;96063.06;;;-1.63;100.00
49947;BME280;35839;48.662;13.300;2024-01-15T02:25:35;96070.91;;;-1.78;100.00
49947;BME280;35839;48.662;13.300;2024-01-15T02:28:01;96062.41;;;-1.78;100.00
49947;BME280;35839;48.662;13.300;2024-01-15T02:30:28;96070.91;;;-1.78;100.00
49947;BME280;35839;48.662;13.300;2024-01-15T02:32:53;96084.88;;;-1.82;100.00
49947;BME280;35839;48.662;13.300;2024-01-15T02:35:19;96083.25;;;-1.83;100.00
49947;BME280;35839;48.662;13.300;2024-01-15T02:37:44;96087.97;;;-1.77;100.00
49947;BME280;35839;48.662;13.300;2024-01-15T02:40:10;96094.63;;;-1.74;100.00
49947;BME280;35839;48.662;13.300;2024-01-15T02:42:36;96093.91;;;-1.89;100.00
49947;BME280;35839;48.662;13.300;2024-01-15T02:45:01;96096.78;;;-1.94;100.00
49947;BME280;35839;48.662;13.300;2024-01-15T02:47:27;96099.03;;;-1.89;100.00
49947;BME280;35839;48.662;13.300;2024-01-15T02:49:52;96093.91;;;-1.76;100.00
49947;BME280;35839;48.662;13.300;2024-01-15T02:52:18;96112.31;;;-1.95;100.00
49947;BME280;35839;48.662;13.300;2024-01-15T02:54:43;96101.78;;;-1.66;100.00
49947;BME280;35839;48.662;13.300;2024-01-15T02:57:08;96105.78;;;-1.75;100.00
49947;BME280;35839;48.662;13.300;2024-01-15T02:59:33;96108.50;;;-1.89;100.00
49947;BME280;35839;48.662;13.300;2024-01-15T03:01:59;96112.06;;;-1.66;100.00
49947;BME280;35839;48.662;13.300;2024-01-15T03:04:24;96114.66;;;-1.92;100.00
49947;BME280;35839;48.662;13.300;2024-01-15T03:06:49;96111.56;;;-1.72;100.00
49947;BME280;35839;48.662;13.300;2024-01-15T03:09:15;96111.50;;;-1.59;100.00
49947;BME280;35839;48.662;13.300;2024-01-15T03:11:40;96110.56;;;-1.95;100.00
49947;BME280;35839;48.662;13.300;2024-01-15T03:14:06;96108.69;;;-1.80;100.00
49947;BME280;35839;48.662;13.300;2024-01-15T03:16:31;96104.34;;;-1.54;100.00
49947;BME280;35839;48.662;13.300;2024-01-15T03:18:56;96104.00;;;-1.86;100.00
49947;BME280;35839;48.662;13.300;2024-01-15T03:21:22;96109.53;;;-1.92;100.00
49947;BME280;35839;48.662;13.300;2024-01-15T03:23:47;96113.16;;;-1.58;100.00
49947;BME280;35839;48.662;13.300;2024-01-15T03:26:13;96113.00;;;-1.67;100.00
49947;BME280;35839;48.662;13.300;2024-01-15T03:28:38;96116.47;;;-1.68;100.00
49947;BME280;35839;48.662;13.300;2024-01-15T03:31:04;96114.63;;;-1.66;100.00
49947;BME280;35839;48.662;13.300;2024-01-15T03:33:29;96107.09;;;-1.57;100.00
49947;BME280;35839;48.662;13.300;2024-01-15T03:35:54;96110.34;;;-1.79;100.00
49947;BME280;35839;48.662;13.300;2024-01-15T03:38:20;96115.75;;;-1.71;100.00
49947;BME280;35839;48.662;13.300;2024-01-15T03:40:45;96110.16;;;-1.52;100.00
49947;BME280;35839;48.662;13.300;2024-01-15T03:43:12;96113.03;;;-1.56;100.00
49947;BME280;35839;48.662;13.300;2024-01-15T03:45:37;96100.28;;;-1.95;100.00
49947;BME280;35839;48.662;13.300;2024-01-15T03:48:02;96117.31;;;-1.94;100.00
49947;BME280;35839;48.662;13.300;2024-01-15T03:50:28;96111.34;;;-1.68;100.00
49947;BME280;35839;48.662;13.300;2024-01-15T03:52:53;96109.63;;;-1.81;100.00
49947;BME280;35839;48.662;13.300;2024-01-15T03:55:19;96105.06;;;-1.64;100.00
49947;BME280;35839;48.662;13.300;2024-01-15T03:57:44;96110.94;;;-1.38;100.00
49947;BME280;35839;48.662;13.300;2024-01-15T04:00:10;96096.91;;;-1.45;100.00
49947;BME280;35839;48.662;13.300;2024-01-15T04:02:35;96107.31;;;-1.60;100.00
49947;BME280;35839;48.662;13.300;2024-01-15T04:05:00;96100.41;;;-1.46;100.00
49947;BME280;35839;48.662;13.300;2024-01-15T04:07:26;96094.00;;;-1.41;100.00
49947;BME280;35839;48.662;13.300;2024-01-15T04:09:51;96094.31;;;-1.09;100.00
49947;BME280;35839;48.662;13.300;2024-01-15T04:12:16;96094.00;;;-1.17;100.00
49947;BME280;35839;48.662;13.300;2024-01-15T04:14:42;96097.19;;;-1.13;100.00
49947;BME280;35839;48.662;13.300;2024-01-15T04:17:07;96104.84;;;-1.24;100.00
49947;BME280;35839;48.662;13.300;2024-01-15T04:19:33;96100.59;;;-1.37;100.00
49947;BME280;35839;48.662;13.300;2024-01-15T04:21:58;96106.59;;;-1.25;100.00
49947;BME280;35839;48.662;13.300;2024-01-15T04:24:23;96101.69;;;-1.28;100.00
49947;BME280;35839;48.662;13.300;2024-01-15T04:26:49;96108.53;;;-1.29;100.00
49947;BME280;35839;48.662;13.300;2024-01-15T04:29:14;96112.28;;;-1.70;100.00
49947;BME280;35839;48.662;13.300;2024-01-15T04:31:39;96111.34;;;-1.08;100.00
49947;BME280;35839;48.662;13.300;2024-01-15T04:34:05;96115.31;;;-0.79;100.00
49947;BME280;35839;48.662;13.300;2024-01-15T04:36:30;96120.38;;;-1.02;100.00
49947;BME280;35839;48.662;13.300;2024-01-15T04:38:55;96109.50;;;-1.30;100.00
49947;BME280;35839;48.662;13.300;2024-01-15T04:41:21;96115.69;;;-1.45;100.00
49947;BME280;35839;48.662;13.300;2024-01-15T04:43:46;96118.94;;;-1.06;100.00
49947;BME280;35839;48.662;13.300;2024-01-15T04:46:11;96114.84;;;-1.09;100.00
49947;BME280;35839;48.662;13.300;2024-01-15T04:48:37;96134.03;;;-1.01;100.00
49947;BME280;35839;48.662;13.300;2024-01-15T04:51:05;96123.56;;;-1.35;100.00
49947;BME280;35839;48.662;13.300;2024-01-15T04:53:34;96120.91;;;-1.34;100.00
49947;BME280;35839;48.662;13.300;2024-01-15T04:55:59;96125.94;;;-1.08;100.00
49947;BME280;35839;48.662;13.300;2024-01-15T04:58:25;96117.25;;;-1.18;100.00
49947;BME280;35839;48.662;13.300;2024-01-15T05:00:52;96116.22;;;-1.40;100.00
49947;BME280;35839;48.662;13.300;2024-01-15T05:03:18;96109.19;;;-1.38;100.00
49947;BME280;35839;48.662;13.300;2024-01-15T05:05:47;96112.22;;;-1.20;100.00
49947;BME280;35839;48.662;13.300;2024-01-15T05:08:13;96112.38;;;-1.10;100.00
49947;BME280;35839;48.662;13.300;2024-01-15T05:10:38;96112.41;;;-1.47;100.00
49947;BME280;35839;48.662;13.300;2024-01-15T05:13:03;96122.81;;;-1.61;100.00
49947;BME280;35839;48.662;13.300;2024-01-15T05:15:29;96110.88;;;-1.50;100.00
49947;BME280;35839;48.662;13.300;2024-01-15T05:17:55;96114.97;;;-1.47;100.00
49947;BME280;35839;48.662;13.300;2024-01-15T05:20:20;96112.28;;;-1.33;100.00
49947;BME280;35839;48.662;13.300;2024-01-15T05:22:45;96107.72;;;-1.29;100.00
49947;BME280;35839;48.662;13.300;2024-01-15T05:25:11;96100.59;;;-1.37;100.00
49947;BME280;35839;48.662;13.300;2024-01-15T05:27:37;96100.81;;;-1.40;100.00
49947;BME280;35839;48.662;13.300;2024-01-15T05:30:05;96107.00;;;-1.55;100.00
49947;BME280;35839;48.662;13.300;2024-01-15T05:32:30;96101.38;;;-1.23;100.00
49947;BME280;35839;48.662;13.300;2024-01-15T05:34:55;96088.66;;;-1.38;100.00
49947;BME280;35839;48.662;13.300;2024-01-15T05:37:21;96096.66;;;-1.30;100.00
49947;BME280;35839;48.662;13.300;2024-01-15T05:39:46;96097.84;;;-1.22;100.00
49947;BME280;35839;48.662;13.300;2024-01-15T05:42:12;96101.97;;;-0.85;100.00
49947;BME280;35839;48.662;13.300;2024-01-15T05:44:37;96095.44;;;-1.37;100.00
49947;BME280;35839;48.662;13.300;2024-01-15T05:47:03;96094.66;;;-1.50;100.00
49947;BME280;35839;48.662;13.300;2024-01-15T05:49:29;96098.44;;;-1.43;100.00
49947;BME280;35839;48.662;13.300;2024-01-15T05:51:54;96089.84;;;-1.31;100.00
49947;BME280;35839;48.662;13.300;2024-01-15T05:54:20;96088.03;;;-1.04;100.00
49947;BME280;35839;48.662;13.300;2024-01-15T05:56:46;96092.81;;;-1.48;100.00
49947;BME280;35839;48.662;13.300;2024-01-15T05:59:11;96090.16;;;-1.22;100.00
49947;BME280;35839;48.662;13.300;2024-01-15T06:01:36;96083.41;;;-1.12;100.00
49947;BME280;35839;48.662;13.300;2024-01-15T06:04:02;96084.00;;;-0.85;100.00
49947;BME280;35839;48.662;13.300;2024-01-15T06:06:27;96083.50;;;-0.90;100.00
49947;BME280;35839;48.662;13.300;2024-01-15T06:08:53;96087.84;;;-0.90;100.00
49947;BME280;35839;48.662;13.300;2024-01-15T06:11:19;96087.81;;;-1.25;100.00
49947;BME280;35839;48.662;13.300;2024-01-15T06:13:44;96087.19;;;-1.05;100.00
49947;BME280;35839;48.662;13.300;2024-01-15T06:16:14;96083.50;;;-0.90;100.00
49947;BME280;35839;48.662;13.300;2024-01-15T06:18:45;96081.03;;;-0.67;100.00
49947;BME280;35839;48.662;13.300;2024-01-15T06:21:11;96080.19;;;-1.03;100.00
49947;BME280;35839;48.662;13.300;2024-01-15T06:23:38;96087.34;;;-1.19;100.00
49947;BME280;35839;48.662;13.300;2024-01-15T06:26:03;96080.84;;;-1.12;100.00
49947;BME280;35839;48.662;13.300;2024-01-15T06:28:29;96078.66;;;-0.70;100.00
49947;BME280;35839;48.662;13.300;2024-01-15T06:30:54;96069.31;;;-0.71;100.00
49947;BME280;35839;48.662;13.300;2024-01-15T06:33:19;96071.66;;;-0.68;100.00
49947;BME280;35839;48.662;13.300;2024-01-15T06:35:45;96063.19;;;-0.93;100.00
49947;BME280;35839;48.662;13.300;2024-01-15T06:38:11;96063.03;;;-0.67;100.00
49947;BME280;35839;48.662;13.300;2024-01-15T06:40:36;96057.59;;;-0.29;100.00
49947;BME280;35839;48.662;13.300;2024-01-15T06:43:01;96068.72;;;-0.06;100.00
49947;BME280;35839;48.662;13.300;2024-01-15T06:45:27;96071.16;;;-0.27;100.00
49947;BME280;35839;48.662;13.300;2024-01-15T06:47:52;96081.56;;;-0.39;100.00
49947;BME280;35839;48.662;13.300;2024-01-15T06:50:17;96076.06;;;-0.12;100.00
49947;BME280;35839;48.662;13.300;2024-01-15T06:52:43;96080.88;;;-0.08;100.00
49947;BME280;35839;48.662;13.300;2024-01-15T06:55:08;96077.06;;;-0.60;100.00
49947;BME280;35839;48.662;13.300;2024-01-15T06:57:33;96085.84;;;-0.62;100.00
49947;BME280;35839;48.662;13.300;2024-01-15T06:59:59;96080.88;;;-0.30;100.00
49947;BME280;35839;48.662;13.300;2024-01-15T07:02:24;96079.81;;;-0.28;100.00
49947;BME280;35839;48.662;13.300;2024-01-15T07:04:49;96080.88;;;-0.08;100.00
49947;BME280;35839;48.662;13.300;2024-01-15T07:07:15;96085.56;;;0.10;100.00
49947;BME280;35839;48.662;13.300;2024-01-15T07:09:40;96091.53;;;-0.01;100.00
49947;BME280;35839;48.662;13.300;2024-01-15T07:12:06;96090.47;;;-0.10;100.00
49947;BME280;35839;48.662;13.300;2024-01-15T07:14:31;96092.81;;;-0.18;100.00
49947;BME280;35839;48.662;13.300;2024-01-15T07:16:58;96097.25;;;-0.20;100.00
49947;BME280;35839;48.662;13.300;2024-01-15T07:19:23;96093.91;;;-0.45;100.00
49947;BME280;35839;48.662;13.300;2024-01-15T07:21:49;96089.50;;;-0.31;100.00
49947;BME280;35839;48.662;13.300;2024-01-15T07:24:14;96091.16;;;-0.30;100.00
49947;BME280;35839;48.662;13.300;2024-01-15T07:26:40;96087.72;;;-0.42;100.00
49947;BME280;35839;48.662;13.300;2024-01-15T07:29:05;96084.97;;;-0.28;100.00
49947;BME280;35839;48.662;13.300;2024-01-15T07:31:30;96085.75;;;-0.38;100.00
49947;BME280;35839;48.662;13.300;2024-01-15T07:33:56;96091.34;;;-0.45;100.00
49947;BME280;35839;48.662;13.300;2024-01-15T07:36:21;96092.78;;;-0.29;100.00
49947;BME280;35839;48.662;13.300;2024-01-15T07:38:47;96094.91;;;-0.23;100.00
49947;BME280;35839;48.662;13.300;2024-01-15T07:41:13;96092.44;;;-0.36;100.00
49947;BME280;35839;48.662;13.300;2024-01-15T07:43:38;96086.72;;;-0.17;100.00
49947;BME280;35839;48.662;13.300;2024-01-15T07:46:04;96080.41;;;-0.02;100.00
49947;BME280;35839;48.662;13.300;2024-01-15T07:48:29;96086.03;;;0.15;100.00
49947;BME280;35839;48.662;13.300;2024-01-15T07:50:55;96087.19;;;-0.23;100.00
49947;BME280;35839;48.662;13.300;2024-01-15T07:53:20;96094.56;;;0.04;100.00
49947;BME280;35839;48.662;13.300;2024-01-15T07:55:45;96079.13;;;-0.18;100.00
49947;BME280;35839;48.662;13.300;2024-01-15T07:58:11;96090.59;;;0.11;100.00
49947;BME280;35839;48.662;13.300;2024-01-15T08:00:36;96091.66;;;0.31;100.00
49947;BME280;35839;48.662;13.300;2024-01-15T08:03:02;96081.69;;;0.49;100.00
49947;BME280;35839;48.662;13.300;2024-01-15T08:05:29;96085.53;;;0.44;100.00
49947;BME280;35839;48.662;13.300;2024-01-15T08:07:54;96081.19;;;0.44;100.00
49947;BME280;35839;48.662;13.300;2024-01-15T08:10:20;96080.53;;;0.86;100.00
49947;BME280;35839;48.662;13.300;2024-01-15T08:12:45;96072.41;;;0.58;100.00
49947;BME280;35839;48.662;13.300;2024-01-15T08:15:10;96073.47;;;0.55;100.00
49947;BME280;35839;48.662;13.300;2024-01-15T08:17:36;96067.72;;;0.63;100.00
49947;BME280;35839;48.662;13.300;2024-01-15T08:20:01;96075.50;;;0.18;100.00
49947;BME280;35839;48.662;13.300;2024-01-15T08:22:27;96065.63;;;0.57;100.00
49947;BME280;35839;48.662;13.300;2024-01-15T08:24:53;96069.88;;;0.24;100.00
49947;BME280;35839;48.662;13.300;2024-01-15T08:27:21;96056.66;;;0.40;100.00
49947;BME280;35839;48.662;13.300;2024-01-15T08:29:47;96065.16;;;0.63;100.00
49947;BME280;35839;48.662;13.300;2024-01-15T08:32:12;96070.59;;;0.37;100.00
49947;BME280;35839;48.662;13.300;2024-01-15T08:34:40;96060.53;;;-0.11;100.00
49947;BME280;35839;48.662;13.300;2024-01-15T08:37:05;96060.66;;;-0.01;100.00
49947;BME280;35839;48.662;13.300;2024-01-15T08:39:31;96061.09;;;0.38;100.00
49947;BME280;35839;48.662;13.300;2024-01-15T08:41:56;96067.91;;;0.71;100.00
49947;BME280;35839;48.662;13.300;2024-01-15T08:44:22;96072.47;;;0.79;100.00
49947;BME280;35839;48.662;13.300;2024-01-15T08:46:47;96075.72;;;0.37;100.00
49947;BME280;35839;48.662;13.300;2024-01-15T08:49:12;96070.69;;;0.25;100.00
49947;BME280;35839;48.662;13.300;2024-01-15T08:51:37;96056.34;;;0.98;100.00
49947;BME280;35839;48.662;13.300;2024-01-15T08:54:04;96058.50;;;1.14;100.00
49947;BME280;35839;48.662;13.300;2024-01-15T08:56:29;96062.09;;;1.22;100.00
49947;BME280;35839;48.662;13.300;2024-01-15T08:58:55;96063.19;;;1.62;100.00
49947;BME280;35839;48.662;13.300;2024-01-15T09:01:20;96054.00;;;1.48;100.00
49947;BME280;35839;48.662;13.300;2024-01-15T09:03:46;96056.22;;;0.99;100.00
49947;BME280;35839;48.662;13.300;2024-01-15T09:06:13;96048.34;;;1.12;100.00
49947;BME280;35839;48.662;13.300;2024-01-15T09:08:39;96052.16;;;1.81;100.00
49947;BME280;35839;48.662;13.300;2024-01-15T09:11:04;96056.91;;;1.55;100.00
49947;BME280;35839;48.662;13.300;2024-01-15T09:13:29;96049.91;;;1.66;100.00
49947;BME280;35839;48.662;13.300;2024-01-15T09:15:56;96059.19;;;1.79;100.00
49947;BME280;35839;48.662;13.300;2024-01-15T09:18:21;96049.31;;;1.63;100.00
49947;BME280;35839;48.662;13.300;2024-01-15T09:20:46;96051.47;;;1.58;100.00
49947;BME280;35839;48.662;13.300;2024-01-15T09:23:12;96052.81;;;1.52;100.00
49947;BME280;35839;48.662;13.300;2024-01-15T09:25:37;96066.69;;;1.61;100.00
49947;BME280;35839;48.662;13.300;2024-01-15T09:28:02;96055.91;;;1.77;100.00
49947;BME280;35839;48.662;13.300;2024-01-15T09:30:28;96052.78;;;1.73;100.00
49947;BME280;35839;48.662;13.300;2024-01-15T09:32:53;96051.31;;;1.29;100.00
49947;BME280;35839;48.662;13.300;2024-01-15T09:35:18;96059.75;;;0.98;100.00
49947;BME280;35839;48.662;13.300;2024-01-15T09:37:44;96056.84;;;0.92;100.00
49947;BME280;35839;48.662;13.300;2024-01-15T09:40:13;96048.41;;;1.43;100.00
49947;BME280;35839;48.662;13.300;2024-01-15T09:42:42;96039.84;;;1.21;100.00
49947;BME280;35839;48.662;13.300;2024-01-15T09:45:08;96054.97;;;0.94;100.00
49947;BME280;35839;48.662;13.300;2024-01-15T09:47:35;96043.03;;;1.35;100.00
49947;BME280;35839;48.662;13.300;2024-01-15T09:50:03;96043.94;;;1.66;100.00
49947;BME280;35839;48.662;13.300;2024-01-15T09:52:30;96052.00;;;1.31;100.00
49947;BME280;35839;48.662;13.300;2024-01-15T09:54:56;96052.53;;;1.55;100.00
49947;BME280;35839;48.662;13.300;2024-01-15T09:57:23;96053.03;;;1.49;100.00
49947;BME280;35839;48.662;13.300;2024-01-15T09:59:48;96045.56;;;1.25;100.00
49947;BME280;35839;48.662;13.300;2024-01-15T10:02:14;96040.44;;;1.77;100.00
49947;BME280;35839;48.662;13.300;2024-01-15T10:04:42;96034.63;;;2.15;100.00
49947;BME280;35839;48.662;13.300;2024-01-15T10:07:08;96038.41;;;1.50;100.00
49947;BME280;35839;48.662;13.300;2024-01-15T10:09:35;96039.28;;;1.39;100.00
49947;BME280;35839;48.662;13.300;2024-01-15T10:12:00;96030.84;;;1.16;100.00
49947;BME280;35839;48.662;13.300;2024-01-15T10:14:26;96032.03;;;1.33;100.00
49947;BME280;35839;48.662;13.300;2024-01-15T10:16:51;96025.75;;;1.25;100.00
49947;BME280;35839;48.662;13.300;2024-01-15T10:19:17;96015.31;;;1.48;100.00
49947;BME280;35839;48.662;13.300;2024-01-15T10:21:42;96016.88;;;0.97;100.00
49947;BME280;35839;48.662;13.300;2024-01-15T10:24:08;96006.56;;;1.18;100.00
49947;BME280;35839;48.662;13.300;2024-01-15T10:26:33;96010.16;;;1.06;100.00
49947;BME280;35839;48.662;13.300;2024-01-15T10:28:59;96007.13;;;1.01;100.00
49947;BME280;35839;48.662;13.300;2024-01-15T10:31:26;96008.28;;;1.29;100.00
49947;BME280;35839;48.662;13.300;2024-01-15T10:33:51;96016.94;;;1.28;100.00
49947;BME280;35839;48.662;13.300;2024-01-15T10:36:17;96010.03;;;1.29;100.00
49947;BME280;35839;48.662;13.300;2024-01-15T10:38:44;96004.19;;;1.78;100.00
49947;BME280;35839;48.662;13.300;2024-01-15T10:41:10;96002.00;;;1.74;100.00
49947;BME280;35839;48.662;13.300;2024-01-15T10:43:35;95992.09;;;1.79;100.00
49947;BME280;35839;48.662;13.300;2024-01-15T10:46:02;95989.84;;;1.64;100.00
49947;BME280;35839;48.662;13.300;2024-01-15T10:48:27;95987.84;;;1.68;100.00
49947;BME280;35839;48.662;13.300;2024-01-15T10:50:55;95979.97;;;1.69;100.00
49947;BME280;35839;48.662;13.300;2024-01-15T10:53:21;95984.41;;;1.37;100.00
49947;BME280;35839;48.662;13.300;2024-01-15T10:55:48;95990.72;;;1.75;100.00
49947;BME280;35839;48.662;13.300;2024-01-15T10:58:15;95985.00;;;1.71;100.00
49947;BME280;35839;48.662;13.300;2024-01-15T11:00:41;95976.41;;;1.40;100.00
49947;BME280;35839;48.662;13.300;2024-01-15T11:03:08;95985.44;;;1.45;100.00
49947;BME280;35839;48.662;13.300;2024-01-15T11:05:37;95973.34;;;1.77;100.00
49947;BME280;35839;48.662;13.300;2024-01-15T11:08:05;95974.75;;;1.60;100.00
49947;BME280;35839;48.662;13.300;2024-01-15T11:10:42;95964.84;;;1.55;100.00
49947;BME280;35839;48.662;13.300;2024-01-15T11:18:34;95946.13;;;2.03;100.00
49947;BME280;35839;48.662;13.300;2024-01-15T11:24:06;95943.69;;;1.61;100.00
49947;BME280;35839;48.662;13.300;2024-01-15T11:34:19;95938.16;;;2.55;100.00
49947;BME280;35839;48.662;13.300;2024-01-15T11:42:02;95952.31;;;2.90;100.00
49947;BME280;35839;48.662;13.300;2024-01-15T11:44:30;95942.47;;;2.25;100.00
49947;BME280;35839;48.662;13.300;2024-01-15T11:47:06;95937.75;;;2.60;100.00
49947;BME280;35839;48.662;13.300;2024-01-15T11:52:21;95929.44;;;2.27;100.00
49947;BME280;35839;48.662;13.300;2024-01-15T11:57:47;95921.78;;;1.96;100.00
49947;BME280;35839;48.662;13.300;2024-01-15T12:00:14;95926.59;;;2.40;100.00
49947;BME280;35839;48.662;13.300;2024-01-15T12:02:45;95935.38;;;1.98;100.00
49947;BME280;35839;48.662;13.300;2024-01-15T12:05:12;95924.47;;;1.85;100.00
49947;BME280;35839;48.662;13.300;2024-01-15T12:07:42;95926.16;;;2.15;100.00
49947;BME280;35839;48.662;13.300;2024-01-15T12:10:12;95924.09;;;1.99;100.00
49947;BME280;35839;48.662;13.300;2024-01-15T12:12:51;95925.16;;;1.87;100.00
49947;BME280;35839;48.662;13.300;2024-01-15T12:15:18;95919.91;;;1.98;100.00
49947;BME280;35839;48.662;13.300;2024-01-15T12:17:45;95912.25;;;1.87;100.00
49947;BME280;35839;48.662;13.300;2024-01-15T12:20:11;95922.25;;;1.71;100.00
49947;BME280;35839;48.662;13.300;2024-01-15T12:22:38;95922.59;;;1.97;100.00
49947;BME280;35839;48.662;13.300;2024-01-15T12:25:05;95913.34;;;1.84;100.00
49947;BME280;35839;48.662;13.300;2024-01-15T12:27:30;95914.47;;;2.11;100.00
49947;BME280;35839;48.662;13.300;2024-01-15T12:29:58;95913.78;;;1.99;100.00
49947;BME280;35839;48.662;13.300;2024-01-15T12:32:24;95911.75;;;1.62;100.00
49947;BME280;35839;48.662;13.300;2024-01-15T12:34:50;95910.72;;;1.75;100.00
49947;BME280;35839;48.662;13.300;2024-01-15T12:37:18;95911.97;;;1.80;100.00
49947;BME280;35839;48.662;13.300;2024-01-15T12:39:44;95912.78;;;1.81;100.00
49947;BME280;35839;48.662;13.300;2024-01-15T12:42:10;95909.47;;;1.69;100.00
49947;BME280;35839;48.662;13.300;2024-01-15T12:44:35;95916.72;;;1.85;100.00
49947;BME280;35839;48.662;13.300;2024-01-15T12:47:04;95910.66;;;2.05;100.00
49947;BME280;35839;48.662;13.300;2024-01-15T12:49:30;95913.66;;;2.01;100.00
49947;BME280;35839;48.662;13.300;2024-01-15T12:51:59;95911.19;;;1.99;100.00
49947;BME280;35839;48.662;13.300;2024-01-15T12:54:25;95911.53;;;1.75;100.00
49947;BME280;35839;48.662;13.300;2024-01-15T12:56:51;95913.66;;;2.20;100.00
49947;BME280;35839;48.662;13.300;2024-01-15T12:59:17;95903.88;;;2.14;100.00
49947;BME280;35839;48.662;13.300;2024-01-15T13:01:43;95909.81;;;1.95;100.00
49947;BME280;35839;48.662;13.300;2024-01-15T13:04:09;95902.13;;;2.15;100.00